createdAt,value
2019-04-03T09:27:47.702Z,8.60
2019-04-03T10:24:44.586Z,9.10
2019-04-03T10:27:12.553Z,9.10
2019-04-03T10:29:40.346Z,9.00
2019-04-03T10:32:09.694Z,9.10
2019-04-03T10:34:37.370Z,9.20
2019-04-03T10:37:05.310Z,9.00
2019-04-03T10:39:33.356Z,8.90
2019-04-03T10:42:01.329Z,8.80
2019-04-03T10:59:18.960Z,8.80
2019-04-03T11:01:46.798Z,8.80
2019-04-03T11:06:42.479Z,9.50
2019-04-03T11:09:10.446Z,9.70
2019-04-03T11:11:38.205Z,9.70
2019-04-03T11:14:11.262Z,10.50
2019-04-03T11:16:39.513Z,10.50
2019-04-03T11:19:07.499Z,10.70
2019-04-03T11:21:35.527Z,10.90
2019-04-03T11:24:04.398Z,11.00
2019-04-03T11:26:33.165Z,11.40
2019-04-03T11:29:01.091Z,11.50
2019-04-03T11:31:29.980Z,11.70
2019-04-03T11:33:58.433Z,11.70
2019-04-03T11:36:29.716Z,11.70
2019-04-03T11:39:10.694Z,11.50
2019-04-03T11:41:25.225Z,11.30
2019-04-03T11:43:52.902Z,11.00
2019-04-03T11:46:20.739Z,10.80
2019-04-03T11:48:49.227Z,10.60
2019-04-03T11:51:16.978Z,10.50
2019-04-03T11:53:45.914Z,10.50
2019-04-03T11:56:16.398Z,10.60
2019-04-03T11:58:44.258Z,10.70
2019-04-03T12:01:15.794Z,10.80
2019-04-03T12:03:42.921Z,10.80
2019-04-03T12:06:12.738Z,10.70
2019-04-03T12:08:40.330Z,11.00
2019-04-03T12:11:08.231Z,11.20
2019-04-03T12:13:36.108Z,11.40
2019-04-03T12:16:04.499Z,11.90
2019-04-03T12:18:34.141Z,11.80
2019-04-03T12:21:01.967Z,12.00
2019-04-03T12:23:29.659Z,12.30
2019-04-03T12:25:57.374Z,12.50
2019-04-03T12:28:25.126Z,12.20
2019-04-03T12:30:52.861Z,12.30
2019-04-03T12:33:21.207Z,12.30
2019-04-03T12:35:49.514Z,12.30
2019-04-03T12:38:17.280Z,12.10
2019-04-03T12:40:45.020Z,12.10
2019-04-03T12:43:12.628Z,12.00
2019-04-03T12:45:40.843Z,12.00
2019-04-03T12:48:08.487Z,11.90
2019-04-03T12:50:36.135Z,11.70
2019-04-03T12:53:03.915Z,11.50
2019-04-03T12:55:31.519Z,11.30
2019-04-03T12:57:59.409Z,11.40
2019-04-03T13:00:27.057Z,11.40
2019-04-03T13:02:54.751Z,11.40
2019-04-03T13:05:22.397Z,11.40
2019-04-03T13:07:50.064Z,11.40
2019-04-03T13:10:18.112Z,11.60
2019-04-03T13:12:46.121Z,11.60
2019-04-03T13:15:14.650Z,11.60
2019-04-03T13:17:43.804Z,11.80
2019-04-03T13:20:15.614Z,12.00
2019-04-03T13:22:43.706Z,12.30
2019-04-03T13:25:11.945Z,12.40
2019-04-03T13:27:39.835Z,12.30
2019-04-03T13:30:11.133Z,12.30
2019-04-03T13:32:39.690Z,12.40
2019-04-03T13:35:07.481Z,12.50
2019-04-03T13:37:35.162Z,12.30
2019-04-03T13:40:05.655Z,12.00
2019-04-03T13:42:32.676Z,11.80
2019-04-03T13:45:00.378Z,11.70
2019-04-03T13:47:28.021Z,11.40
2019-04-03T13:49:55.709Z,11.20
2019-04-03T13:52:23.472Z,11.10
2019-04-03T13:54:51.210Z,11.10
2019-04-03T13:57:19.427Z,10.90
2019-04-03T13:59:47.289Z,10.80
2019-04-03T14:02:15.168Z,10.70
2019-04-03T14:04:43.569Z,10.70
2019-04-03T14:07:11.381Z,10.70
2019-04-03T14:09:39.336Z,10.90
2019-04-03T14:12:07.089Z,10.90
2019-04-03T14:14:35.100Z,10.80
2019-04-03T14:17:05.316Z,10.50
2019-04-03T14:19:42.560Z,10.70
2019-04-03T14:22:01.975Z,10.70
2019-04-03T14:24:41.865Z,10.70
2019-04-03T14:27:22.682Z,10.60
2019-04-03T14:29:43.844Z,10.70
2019-04-03T14:34:41.063Z,10.60
2019-04-03T14:37:08.848Z,10.60
2019-04-03T14:39:37.155Z,10.60
2019-04-03T14:42:07.275Z,10.70
2019-04-03T14:44:35.441Z,10.60
2019-04-03T14:47:03.426Z,10.60
2019-04-03T14:49:32.757Z,10.60
2019-04-03T14:52:01.007Z,10.60
2019-04-03T14:54:30.464Z,10.60
2019-04-03T14:56:58.128Z,10.60
2019-04-03T14:59:26.004Z,10.60
2019-04-03T15:01:53.761Z,10.60
2019-04-03T15:07:01.490Z,10.60
2019-04-03T15:09:20.286Z,10.70
2019-04-03T15:11:48.154Z,10.70
2019-04-03T15:14:15.821Z,10.70
2019-04-03T15:16:43.453Z,10.80
2019-04-03T15:19:13.100Z,10.80
2019-04-03T15:21:40.921Z,10.80
2019-04-03T15:24:08.962Z,10.90
2019-04-03T15:26:38.462Z,10.90
2019-04-03T15:29:08.467Z,10.90
2019-04-03T15:31:36.037Z,10.90
2019-04-03T15:39:05.940Z,10.90
2019-04-03T15:41:34.946Z,10.90
2019-04-03T15:44:02.702Z,10.70
2019-04-03T15:46:33.873Z,10.70
2019-04-03T15:48:59.944Z,10.50
2019-04-03T15:51:27.607Z,10.50
2019-04-03T15:53:57.069Z,10.50
2019-04-03T15:56:24.851Z,10.40
2019-04-03T15:58:52.484Z,10.40
2019-04-03T16:01:20.549Z,10.40
2019-04-03T16:03:49.597Z,10.40
2019-04-03T16:06:17.888Z,10.30
2019-04-03T16:11:15.002Z,10.30
2019-04-03T16:13:42.908Z,10.20
2019-04-03T16:21:06.828Z,10.10
2019-04-03T16:26:03.831Z,10.10
2019-04-03T16:28:34.084Z,10.10
2019-04-03T16:33:29.027Z,10.10
2019-04-03T16:35:56.693Z,10.00
2019-04-03T16:38:27.685Z,10.00
2019-04-03T16:40:54.340Z,10.00
2019-04-03T16:43:23.280Z,10.00
2019-04-03T16:45:51.715Z,10.00
2019-04-03T16:48:19.674Z,9.90
2019-04-03T16:50:47.776Z,9.90
2019-04-03T16:53:15.445Z,9.90
2019-04-03T16:55:43.116Z,9.80
2019-04-03T16:58:11.170Z,9.80
2019-04-03T17:00:41.374Z,9.80
2019-04-03T17:03:08.459Z,9.70
2019-04-03T17:05:36.107Z,9.70
2019-04-03T17:08:03.796Z,9.70
2019-04-03T17:10:31.425Z,9.70
2019-04-03T17:12:59.237Z,9.70
2019-04-03T17:15:26.858Z,9.60
2019-04-03T17:17:57.103Z,9.60
2019-04-03T17:20:25.879Z,9.60
2019-04-03T17:22:55.817Z,9.50
2019-04-03T17:25:23.319Z,9.50
2019-04-03T17:27:56.902Z,9.50
2019-04-03T17:30:22.470Z,9.50
2019-04-03T17:32:50.583Z,9.40
2019-04-03T17:35:18.375Z,9.40
2019-04-03T17:37:46.069Z,9.40
2019-04-03T17:40:15.342Z,9.40
2019-04-03T17:42:43.022Z,9.30
2019-04-03T17:45:11.763Z,9.30
2019-04-03T17:47:39.675Z,9.30
2019-04-03T17:50:07.944Z,9.20
2019-04-03T17:52:36.549Z,9.20
2019-04-03T17:55:05.871Z,9.20
2019-04-03T17:57:33.565Z,9.20
2019-04-03T18:00:01.218Z,9.10
2019-04-03T18:02:29.684Z,9.10
2019-04-03T18:04:58.552Z,9.10
2019-04-03T18:07:29.012Z,9.10
2019-04-03T18:09:59.667Z,9.00
2019-04-03T18:12:27.282Z,9.00
2019-04-03T18:14:55.724Z,9.00
2019-04-03T18:17:26.922Z,9.00
2019-04-03T18:19:54.551Z,8.90
2019-04-03T18:22:22.228Z,8.90
2019-04-03T18:24:53.861Z,8.90
2019-04-03T18:27:21.921Z,8.90
2019-04-03T18:29:50.272Z,8.80
2019-04-03T18:32:19.745Z,8.80
2019-04-03T18:34:50.744Z,8.80
2019-04-03T18:37:18.500Z,8.80
2019-04-03T18:39:46.463Z,8.80
2019-04-03T18:42:16.748Z,8.80
2019-04-03T18:44:45.566Z,8.70
2019-04-03T18:47:13.262Z,8.70
2019-04-03T18:49:40.885Z,8.70
2019-04-03T18:52:09.021Z,8.70
2019-04-03T18:54:37.701Z,8.50
2019-04-03T18:57:05.686Z,8.70
2019-04-03T18:59:33.402Z,8.60
2019-04-03T19:02:01.985Z,8.60
2019-04-03T19:04:30.528Z,8.60
2019-04-03T19:06:58.173Z,8.60
2019-04-03T19:09:47.289Z,8.70
2019-04-03T19:12:14.848Z,8.40
2019-04-03T19:14:42.516Z,8.50
2019-04-03T19:17:10.197Z,8.50
2019-04-03T19:19:37.916Z,8.50
2019-04-03T19:22:05.552Z,8.50
2019-04-03T19:24:34.401Z,8.40
2019-04-03T19:27:02.333Z,8.40
2019-04-03T19:29:32.064Z,8.40
2019-04-03T19:31:59.781Z,8.40
2019-04-03T19:34:27.480Z,8.40
